createdAt,value
2024-04-16T00:00:37.678Z,96464.94
2024-04-16T00:03:04.536Z,96464.75
2024-04-16T00:05:31.173Z,96476.44
2024-04-16T00:07:57.670Z,96467.53
2024-04-16T00:10:24.185Z,96478.81
2024-04-16T00:12:50.754Z,96461.78
2024-04-16T00:15:17.378Z,96460.81
2024-04-16T00:17:45.215Z,96456.47
2024-04-16T00:20:12.399Z,96442.78
2024-04-16T00:22:38.900Z,96434.88
2024-04-16T00:25:06.265Z,96426.38
2024-04-16T00:27:32.764Z,96427.38
2024-04-16T00:29:59.266Z,96428.56
2024-04-16T00:32:26.146Z,96423.22
2024-04-16T00:34:53.118Z,96435.28
2024-04-16T00:37:20.704Z,96430.16
2024-04-16T00:39:50.096Z,96429.75
2024-04-16T00:42:16.728Z,96442.19
2024-04-16T00:44:43.720Z,96449.72
2024-04-16T00:47:12.809Z,96458.25
2024-04-16T00:49:40.125Z,96455.47
2024-04-16T00:52:06.960Z,96454.28
2024-04-16T00:54:34.528Z,96446.16
2024-04-16T00:57:01.653Z,96443.81
2024-04-16T00:59:29.165Z,96434.69
2024-04-16T01:01:56.626Z,96422.59
2024-04-16T01:04:24.153Z,96418.84
2024-04-16T01:06:53.636Z,96404.59
2024-04-16T01:09:20.284Z,96405.00
2024-04-16T01:11:46.926Z,96399.63
2024-04-16T01:14:14.032Z,96399.03
2024-04-16T01:16:40.584Z,96403.56
2024-04-16T01:19:08.237Z,96401.78
2024-04-16T01:21:34.869Z,96400.59
2024-04-16T01:24:01.370Z,96408.88
2024-04-16T01:26:27.940Z,96414.44
2024-04-16T01:28:54.421Z,96402.38
2024-04-16T01:31:20.968Z,96405.31
2024-04-16T01:33:47.478Z,96397.22
2024-04-16T01:36:13.974Z,96397.41
2024-04-16T01:38:40.476Z,96396.63
2024-04-16T01:41:06.985Z,96393.69
2024-04-16T01:43:33.632Z,96396.25
2024-04-16T01:46:00.249Z,96387.91
2024-04-16T01:48:26.824Z,96383.94
2024-04-16T01:50:55.393Z,96388.13
2024-04-16T01:53:21.884Z,96382.22
2024-04-16T01:55:48.357Z,96380.22
2024-04-16T01:58:14.912Z,96376.84
2024-04-16T02:00:41.444Z,96372.13
2024-04-16T02:03:08.221Z,96375.47
2024-04-16T02:05:38.039Z,96372.09
2024-04-16T02:08:04.869Z,96381.97
2024-04-16T02:10:31.385Z,96374.50
2024-04-16T02:12:57.905Z,96369.72
2024-04-16T02:15:24.406Z,96364.16
2024-04-16T02:17:51.182Z,96355.03
2024-04-16T02:20:17.792Z,96349.88
2024-04-16T02:22:44.382Z,96342.38
2024-04-16T02:25:10.927Z,96354.09
2024-04-16T02:27:37.552Z,96346.19
2024-04-16T02:30:04.469Z,96347.00
2024-04-16T02:32:31.010Z,96351.00
2024-04-16T02:34:57.520Z,96351.41
2024-04-16T02:37:24.000Z,96355.19
2024-04-16T02:39:50.473Z,96343.50
2024-04-16T02:42:16.942Z,96355.56
2024-04-16T02:44:43.461Z,96351.59
2024-04-16T02:47:09.941Z,96356.72
2024-04-16T02:49:36.538Z,96329.81
2024-04-16T02:52:03.053Z,96326.06
2024-04-16T02:54:29.547Z,96320.16
2024-04-16T02:56:56.016Z,96311.66
2024-04-16T02:59:22.491Z,96316.63
2024-04-16T03:01:49.096Z,96306.13
2024-04-16T03:04:15.671Z,96304.78
2024-04-16T03:06:42.140Z,96294.50
2024-04-16T03:09:08.617Z,96295.28
2024-04-16T03:11:35.117Z,96288.75
2024-04-16T03:14:01.685Z,96297.44
2024-04-16T03:16:28.357Z,96298.03
2024-04-16T03:18:54.867Z,96290.75
2024-04-16T03:21:23.395Z,96293.31
2024-04-16T03:23:51.412Z,96299.63
2024-04-16T03:26:17.889Z,96297.06
2024-04-16T03:28:44.373Z,96288.16
2024-04-16T03:31:10.876Z,96293.09
2024-04-16T03:33:37.363Z,96295.66
2024-04-16T03:36:04.159Z,96298.22
2024-04-16T03:38:30.704Z,96298.63
2024-04-16T03:41:00.915Z,96299.00
2024-04-16T03:43:28.639Z,96291.50
2024-04-16T03:45:56.573Z,96295.84
2024-04-16T03:48:25.077Z,96296.84
2024-04-16T03:50:51.774Z,96293.09
2024-04-16T03:53:18.463Z,96296.22
2024-04-16T03:55:45.591Z,96304.13
2024-04-16T03:58:12.144Z,96307.50
2024-04-16T04:00:38.808Z,96306.94
2024-04-16T04:03:05.557Z,96316.81
2024-04-16T04:05:32.035Z,96309.09
2024-04-16T04:07:58.536Z,96311.47
2024-04-16T04:10:25.036Z,96308.09
2024-04-16T04:12:51.529Z,96306.09
2024-04-16T04:15:17.985Z,96308.66
2024-04-16T04:17:44.527Z,96312.81
2024-04-16T04:20:11.080Z,96306.06
2024-04-16T04:25:04.598Z,96304.84
2024-04-16T04:27:31.208Z,96307.19
2024-04-16T04:29:57.717Z,96310.38
2024-04-16T04:32:24.259Z,96307.97
2024-04-16T04:34:50.751Z,96306.56
2024-04-16T04:37:17.311Z,96310.16
2024-04-16T04:39:43.797Z,96311.53
2024-04-16T04:42:10.386Z,96305.41
2024-04-16T04:44:36.887Z,96321.88
2024-04-16T04:47:03.354Z,96315.50
2024-04-16T04:49:29.852Z,96317.72
2024-04-16T04:51:56.318Z,96309.38
2024-04-16T04:54:22.925Z,96315.50
2024-04-16T04:56:49.403Z,96318.09
2024-04-16T04:59:15.933Z,96332.34
2024-04-16T05:01:42.427Z,96332.53
2024-04-16T05:04:09.047Z,96334.91
2024-04-16T05:06:35.592Z,96343.22
2024-04-16T05:09:02.079Z,96344.00
2024-04-16T05:11:28.601Z,96336.28
2024-04-16T05:13:55.109Z,96351.72
2024-04-16T05:16:21.715Z,96350.75
2024-04-16T05:18:49.550Z,96346.56
2024-04-16T05:21:16.148Z,96353.66
2024-04-16T05:23:42.654Z,96351.03
2024-04-16T05:26:09.175Z,96349.06
2024-04-16T05:28:36.120Z,96356.78
2024-04-16T05:31:02.790Z,96365.31
2024-04-16T05:33:29.323Z,96364.38
2024-04-16T05:36:02.223Z,96373.69
2024-04-16T05:38:32.490Z,96372.81
2024-04-16T05:40:58.972Z,96373.28
2024-04-16T05:43:25.474Z,96366.97
2024-04-16T05:45:51.952Z,96367.97
2024-04-16T05:48:18.474Z,96360.97
2024-04-16T05:50:45.023Z,96371.09
2024-04-16T05:53:11.605Z,96377.13
2024-04-16T05:55:38.233Z,96377.75
2024-04-16T05:58:05.068Z,96376.41
2024-04-16T06:00:31.636Z,96371.88
2024-04-16T06:02:58.270Z,96384.53
2024-04-16T06:05:24.725Z,96370.81
2024-04-16T06:07:51.218Z,96369.44
2024-04-16T06:10:17.800Z,96378.38
2024-04-16T06:12:44.314Z,96376.59
2024-04-16T06:15:10.829Z,96376.78
2024-04-16T06:17:37.357Z,96364.94
2024-04-16T06:20:04.090Z,96368.09
2024-04-16T06:22:30.676Z,96364.72
2024-04-16T06:24:57.185Z,96377.44
2024-04-16T06:27:23.765Z,96359.22
2024-04-16T06:29:50.269Z,96366.72
2024-04-16T06:32:16.749Z,96368.56
2024-04-16T06:34:43.311Z,96367.56
2024-04-16T06:37:09.864Z,96370.72
2024-04-16T06:39:36.584Z,96369.56
2024-04-16T06:42:03.170Z,96377.50
2024-04-16T06:44:29.685Z,96382.63
2024-04-16T06:46:56.148Z,96389.56
2024-04-16T06:49:22.862Z,96397.69
2024-04-16T06:51:49.335Z,96396.09
2024-04-16T06:54:15.810Z,96382.63
2024-04-16T06:56:42.310Z,96390.81
2024-04-16T06:59:09.125Z,96387.72
2024-04-16T07:01:35.784Z,96388.50
2024-04-16T07:04:02.339Z,96393.09
2024-04-16T07:06:29.471Z,96396.94
2024-04-16T07:08:56.021Z,96398.53
2024-04-16T07:11:22.662Z,96395.47
2024-04-16T07:13:49.287Z,96396.19
2024-04-16T07:16:15.886Z,96400.06
2024-04-16T07:18:42.405Z,96406.34
2024-04-16T07:21:08.969Z,96403.00
2024-04-16T07:23:35.487Z,96405.22
2024-04-16T07:26:03.928Z,96399.53
2024-04-16T07:28:32.779Z,96404.56
2024-04-16T07:31:06.016Z,96398.16
2024-04-16T07:33:36.964Z,96400.56
2024-04-16T07:36:04.480Z,96391.16
2024-04-16T07:38:30.951Z,96395.88
2024-04-16T07:40:57.986Z,96402.41
2024-04-16T07:43:24.614Z,96404.56
2024-04-16T07:45:51.233Z,96400.75
2024-04-16T07:48:17.783Z,96398.41
2024-04-16T07:50:44.692Z,96398.63
2024-04-16T07:53:11.471Z,96387.00
2024-04-16T07:55:38.170Z,96396.03
2024-04-16T07:58:05.038Z,96390.28
2024-04-16T08:00:31.693Z,96392.31
2024-04-16T08:02:58.272Z,96394.09
2024-04-16T08:05:24.810Z,96403.56
2024-04-16T08:07:51.365Z,96402.13
2024-04-16T08:10:18.853Z,96402.19
2024-04-16T08:12:45.404Z,96390.66
2024-04-16T08:15:11.883Z,96397.59
2024-04-16T08:17:38.591Z,96395.91
2024-04-16T08:20:07.684Z,96390.09
2024-04-16T08:22:35.919Z,96388.75
2024-04-16T08:25:02.419Z,96405.88
2024-04-16T08:27:28.972Z,96405.59
2024-04-16T08:29:55.500Z,96410.56
2024-04-16T08:32:22.155Z,96402.56
2024-04-16T08:34:49.173Z,96402.03
2024-04-16T08:37:15.842Z,96416.28
2024-04-16T08:39:42.372Z,96410.38
2024-04-16T08:42:09.219Z,96412.53
2024-04-16T08:44:36.062Z,96415.19
2024-04-16T08:47:03.709Z,96406.06
2024-04-16T08:49:31.133Z,96407.78
2024-04-16T08:51:58.688Z,96403.84
2024-04-16T08:54:25.592Z,96414.59
2024-04-16T08:56:52.431Z,96408.91
2024-04-16T08:59:19.156Z,96413.06
2024-04-16T09:01:49.566Z,96411.31
2024-04-16T09:04:19.381Z,96411.59
2024-04-16T09:06:46.559Z,96410.66
2024-04-16T09:09:13.052Z,96416.41
2024-04-16T09:11:40.642Z,96407.66
2024-04-16T09:14:08.012Z,96413.25
2024-04-16T09:16:36.698Z,96407.44
2024-04-16T09:19:10.452Z,96397.84
2024-04-16T09:21:37.027Z,96395.28
2024-04-16T09:24:03.816Z,96384.09
2024-04-16T09:26:34.170Z,96387.75
2024-04-16T09:29:00.716Z,96374.81
2024-04-16T09:31:27.261Z,96379.22
2024-04-16T09:34:07.805Z,96381.34
2024-04-16T09:36:35.641Z,96378.63
2024-04-16T09:39:02.137Z,96382.69
2024-04-16T09:41:29.655Z,96384.03
2024-04-16T09:43:56.926Z,96386.13
2024-04-16T09:46:23.962Z,96369.81
2024-04-16T09:48:53.163Z,96370.19
2024-04-16T09:51:23.087Z,96365.16
2024-04-16T09:53:50.618Z,96362.00
2024-04-16T09:56:19.054Z,96345.78
2024-04-16T09:58:51.976Z,96347.31
2024-04-16T10:01:21.342Z,96360.16
2024-04-16T10:03:49.333Z,96343.88
2024-04-16T10:11:49.018Z,96352.66
2024-04-16T10:14:16.364Z,96338.03
2024-04-16T10:16:42.949Z,96335.94
2024-04-16T10:19:09.693Z,96335.25
2024-04-16T10:21:40.390Z,96324.31
2024-04-16T10:24:11.461Z,96332.63
2024-04-16T10:26:39.740Z,96322.94
2024-04-16T10:29:12.815Z,96311.91
2024-04-16T10:31:39.454Z,96308.41
2024-04-16T10:34:06.445Z,96310.75
2024-04-16T10:36:34.500Z,96299.72
2024-04-16T10:39:11.444Z,96298.31
2024-04-16T10:41:37.966Z,96280.25
2024-04-16T10:44:04.737Z,96286.81
2024-04-16T10:46:31.521Z,96271.84
2024-04-16T10:48:58.026Z,96276.66
2024-04-16T10:51:29.001Z,96274.69
2024-04-16T10:54:08.185Z,96268.09
2024-04-16T10:56:38.732Z,96267.78
2024-04-16T10:59:09.692Z,96261.72
2024-04-16T11:01:43.654Z,96261.34
2024-04-16T11:04:14.720Z,96259.72
2024-04-16T11:06:42.011Z,96257.69
2024-04-16T11:09:08.907Z,96274.72
2024-04-16T11:11:35.787Z,96264.25
2024-04-16T11:14:02.835Z,96250.88
2024-04-16T11:16:29.559Z,96249.00
2024-04-16T11:18:57.437Z,96254.09
2024-04-16T11:21:24.816Z,96254.03
2024-04-16T11:23:51.713Z,96244.75
2024-04-16T11:26:18.228Z,96236.59
2024-04-16T11:28:44.756Z,96237.59
2024-04-16T11:31:11.313Z,96229.97
2024-04-16T11:33:38.149Z,96242.38
2024-04-16T11:36:11.628Z,96234.25
2024-04-16T11:38:41.064Z,96223.75
2024-04-16T11:41:12.911Z,96220.25
2024-04-16T11:43:40.483Z,96225.91
2024-04-16T11:46:07.191Z,96226.44
2024-04-16T11:48:34.790Z,96222.91
2024-04-16T11:51:01.287Z,96212.03
2024-04-16T11:53:27.811Z,96220.69
2024-04-16T11:55:54.295Z,96201.91
2024-04-16T11:58:20.767Z,96199.91
2024-04-16T12:00:47.301Z,96197.75
2024-04-16T12:03:13.762Z,96213.34
2024-04-16T12:05:40.374Z,96217.72
2024-04-16T12:08:09.661Z,96212.94
2024-04-16T12:10:39.017Z,96198.63
2024-04-16T12:13:05.814Z,96194.19
2024-04-16T12:15:32.299Z,96195.81
2024-04-16T12:17:59.464Z,96186.84
2024-04-16T12:20:26.036Z,96186.84
2024-04-16T12:22:52.583Z,96171.38
2024-04-16T12:25:19.264Z,96181.63
2024-04-16T12:27:45.760Z,96182.72
2024-04-16T12:30:12.377Z,96183.78
2024-04-16T12:32:40.716Z,96184.84
2024-04-16T12:35:10.295Z,96176.19
2024-04-16T12:37:38.123Z,96177.44
2024-04-16T12:40:04.891Z,96168.50
2024-04-16T12:42:31.396Z,96205.16
2024-04-16T12:44:57.894Z,96197.19
2024-04-16T12:47:24.493Z,96191.19
2024-04-16T12:49:51.029Z,96210.84
2024-04-16T12:52:17.550Z,96223.28
2024-04-16T12:54:44.077Z,96225.38
2024-04-16T12:57:10.558Z,96219.59
2024-04-16T12:59:37.092Z,96214.97
2024-04-16T13:02:03.799Z,96224.16
2024-04-16T13:04:30.412Z,96221.69
2024-04-16T13:06:56.952Z,96222.25
2024-04-16T13:09:23.458Z,96215.16
2024-04-16T13:11:49.929Z,96204.91
2024-04-16T13:14:16.650Z,96196.13
2024-04-16T13:16:43.154Z,96186.78
2024-04-16T13:19:09.661Z,96170.91
2024-04-16T13:21:36.227Z,96173.88
2024-04-16T13:24:03.703Z,96167.34
2024-04-16T13:26:30.193Z,96166.88
2024-04-16T13:28:56.662Z,96160.19
2024-04-16T13:31:23.227Z,96159.66
2024-04-16T13:33:49.712Z,96157.13
2024-04-16T13:36:16.256Z,96153.72
2024-04-16T13:38:42.716Z,96151.84
2024-04-16T13:41:09.209Z,96141.63
2024-04-16T13:43:35.765Z,96146.34
2024-04-16T13:46:02.326Z,96149.84
2024-04-16T13:48:28.901Z,96140.41
2024-04-16T13:50:58.558Z,96136.03
2024-04-16T13:53:27.218Z,96130.97
2024-04-16T13:55:53.799Z,96132.03
2024-04-16T13:58:20.335Z,96136.19
2024-04-16T14:00:46.957Z,96137.94
2024-04-16T14:03:16.115Z,96133.50
2024-04-16T14:05:43.267Z,96142.44
2024-04-16T14:08:09.736Z,96149.50
2024-04-16T14:10:36.271Z,96137.38
2024-04-16T14:13:02.757Z,96169.03
2024-04-16T14:15:29.238Z,96187.22
2024-04-16T14:17:55.742Z,96160.09
2024-04-16T14:20:22.226Z,96145.88
2024-04-16T14:22:48.718Z,96143.03
2024-04-16T14:25:15.267Z,96127.06
2024-04-16T14:27:41.782Z,96132.88
2024-04-16T14:30:08.976Z,96125.94
2024-04-16T14:32:35.510Z,96128.94
2024-04-16T14:35:02.033Z,96130.16
2024-04-16T14:37:28.535Z,96119.63
2024-04-16T14:39:55.069Z,96115.06
2024-04-16T14:42:21.766Z,96109.22
2024-04-16T14:44:48.263Z,96106.44
2024-04-16T14:47:14.767Z,96099.53
2024-04-16T14:49:41.277Z,96092.00
2024-04-16T14:52:07.753Z,96089.53
2024-04-16T14:54:34.209Z,96084.59
2024-04-16T14:57:00.691Z,96080.50
2024-04-16T14:59:27.163Z,96078.59
2024-04-16T15:01:53.801Z,96080.06
2024-04-16T15:04:20.564Z,96079.38
2024-04-16T15:06:47.101Z,96075.66
2024-04-16T15:09:13.636Z,96067.16
2024-04-16T15:11:40.154Z,96065.47
2024-04-16T15:14:06.679Z,96064.69
2024-04-16T15:16:33.215Z,96059.88
2024-04-16T15:18:59.767Z,96056.44
2024-04-16T15:21:26.228Z,96058.22
2024-04-16T15:23:52.979Z,96055.91
2024-04-16T15:26:19.447Z,96046.53
2024-04-16T15:28:45.970Z,96051.72
2024-04-16T15:31:12.533Z,96052.16
2024-04-16T15:33:39.041Z,96042.22
2024-04-16T15:36:05.959Z,96047.44
2024-04-16T15:38:32.480Z,96037.47
2024-04-16T15:40:58.976Z,96049.63
2024-04-16T15:43:25.601Z,96041.13
2024-04-16T15:45:52.158Z,96044.63
2024-04-16T15:48:20.102Z,96042.13
2024-04-16T15:50:50.504Z,96035.63
2024-04-16T15:53:17.019Z,96039.09
2024-04-16T15:55:44.455Z,96035.97
2024-04-16T15:58:11.486Z,96037.47
2024-04-16T16:00:41.127Z,96050.97
2024-04-16T16:03:07.719Z,96044.91
2024-04-16T16:05:34.366Z,96052.13
2024-04-16T16:08:00.841Z,96062.56
2024-04-16T16:10:27.336Z,96056.28
2024-04-16T16:12:53.949Z,96055.69
2024-04-16T16:15:20.431Z,96053.34
2024-04-16T16:17:46.985Z,96050.50
2024-04-16T16:20:13.606Z,96053.47
2024-04-16T16:22:40.145Z,96059.66
2024-04-16T16:25:06.965Z,96066.03
2024-04-16T16:27:33.525Z,96071.31
2024-04-16T16:30:00.016Z,96076.66
2024-04-16T16:32:26.678Z,96079.63
2024-04-16T16:35:06.155Z,96089.72
2024-04-16T16:37:32.898Z,96095.03
2024-04-16T16:40:01.749Z,96101.66
2024-04-16T16:42:28.674Z,96104.59
2024-04-16T16:44:55.172Z,96123.97
2024-04-16T16:47:21.847Z,96142.97
2024-04-16T16:49:48.464Z,96146.47
2024-04-16T16:52:15.130Z,96138.06
2024-04-16T16:54:41.648Z,96149.28
2024-04-16T16:57:08.133Z,96144.84
2024-04-16T16:59:34.871Z,96145.13
2024-04-16T17:02:01.964Z,96157.97
2024-04-16T17:04:28.595Z,96148.72
2024-04-16T17:06:55.086Z,96155.00
2024-04-16T17:09:21.541Z,96156.97
2024-04-16T17:11:48.108Z,96162.84
2024-04-16T17:14:14.651Z,96172.16
2024-04-16T17:16:41.190Z,96176.09
2024-04-16T17:19:07.657Z,96191.28
2024-04-16T17:21:34.148Z,96193.78
2024-04-16T17:24:00.622Z,96193.25
2024-04-16T17:26:27.142Z,96198.44
2024-04-16T17:28:53.639Z,96193.78
2024-04-16T17:31:20.167Z,96194.75
2024-04-16T17:33:46.641Z,96203.56
2024-04-16T17:36:13.125Z,96203.97
2024-04-16T17:38:39.594Z,96215.84
2024-04-16T17:41:06.061Z,96218.78
2024-04-16T17:43:32.537Z,96230.03
2024-04-16T17:45:59.018Z,96232.69
2024-04-16T17:48:26.851Z,96235.53
2024-04-16T17:51:00.858Z,96241.50
2024-04-16T17:53:27.379Z,96239.72
2024-04-16T17:55:53.935Z,96244.25
2024-04-16T17:58:20.431Z,96251.38
2024-04-16T18:00:46.930Z,96249.81
2024-04-16T18:03:13.404Z,96260.69
2024-04-16T18:05:39.880Z,96256.41
2024-04-16T18:08:06.358Z,96260.75
2024-04-16T18:10:32.879Z,96266.69
2024-04-16T18:12:59.389Z,96265.50
2024-04-16T18:15:25.883Z,96270.25
2024-04-16T18:17:52.437Z,96283.09
2024-04-16T18:20:18.971Z,96286.84
2024-04-16T18:22:45.448Z,96301.47
2024-04-16T18:25:11.973Z,96306.22
2024-04-16T18:27:38.414Z,96309.38
2024-04-16T18:30:05.320Z,96317.03
2024-04-16T18:32:31.857Z,96321.38
2024-04-16T18:34:58.465Z,96323.19
2024-04-16T18:37:24.971Z,96323.41
2024-04-16T18:39:51.516Z,96320.66
2024-04-16T18:42:17.991Z,96327.56
2024-04-16T18:44:45.099Z,96335.28
2024-04-16T18:47:11.606Z,96342.03
2024-04-16T18:49:38.132Z,96342.66
2024-04-16T18:52:05.685Z,96341.06
2024-04-16T18:54:33.047Z,96354.34
2024-04-16T18:56:59.504Z,96363.63
2024-04-16T18:59:25.956Z,96358.69
2024-04-16T19:01:52.585Z,96366.97
2024-04-16T19:04:19.111Z,96378.66
2024-04-16T19:06:45.656Z,96378.25
2024-04-16T19:09:12.326Z,96378.84
2024-04-16T19:11:38.877Z,96383.59
2024-04-16T19:14:05.490Z,96381.63
2024-04-16T19:16:32.041Z,96383.19
2024-04-16T19:18:58.580Z,96389.72
2024-04-16T19:21:25.052Z,96402.00
2024-04-16T19:23:51.624Z,96402.00
2024-04-16T19:26:18.259Z,96403.38
2024-04-16T19:28:44.787Z,96404.97
2024-04-16T19:31:11.301Z,96417.41
2024-04-16T19:33:37.768Z,96420.97
2024-04-16T19:36:04.601Z,96416.00
2024-04-16T19:38:31.097Z,96416.97
2024-04-16T19:40:57.740Z,96409.84
2024-04-16T19:43:24.287Z,96411.81
2024-04-16T19:45:50.893Z,96421.91
2024-04-16T19:48:17.472Z,96419.13
2024-04-16T19:50:44.154Z,96422.72
2024-04-16T19:53:10.712Z,96424.28
2024-04-16T19:55:37.266Z,96428.84
2024-04-16T19:58:04.002Z,96431.63
2024-04-16T20:00:32.521Z,96425.50
2024-04-16T20:02:59.304Z,96436.59
2024-04-16T20:05:25.803Z,96435.22
2024-04-16T20:07:52.395Z,96437.41
2024-04-16T20:10:19.038Z,96437.22
2024-04-16T20:12:48.935Z,96445.34
2024-04-16T20:15:15.659Z,96437.25
2024-04-16T20:17:42.221Z,96445.53
2024-04-16T20:20:08.969Z,96446.94
2024-04-16T20:22:35.496Z,96451.09
2024-04-16T20:25:02.895Z,96455.25
2024-04-16T20:27:29.375Z,96457.59
2024-04-16T20:29:55.992Z,96465.94
2024-04-16T20:32:22.614Z,96460.38
2024-04-16T20:34:53.640Z,96468.28
2024-04-16T20:37:20.978Z,96471.84
2024-04-16T20:39:47.499Z,96466.31
2024-04-16T20:42:13.953Z,96479.38
2024-04-16T20:44:40.465Z,96470.84
2024-04-16T20:47:07.014Z,96476.19
2024-04-16T20:49:33.583Z,96473.25
2024-04-16T20:52:00.049Z,96476.41
2024-04-16T20:54:26.528Z,96482.16
2024-04-16T20:56:53.016Z,96479.00
2024-04-16T20:59:19.464Z,96486.50
2024-04-16T21:01:45.953Z,96488.72
2024-04-16T21:04:12.464Z,96485.53
2024-04-16T21:06:38.993Z,96493.06
2024-04-16T21:09:05.497Z,96491.50
2024-04-16T21:11:32.031Z,96495.44
2024-04-16T21:13:58.977Z,96494.63
2024-04-16T21:16:25.525Z,96499.59
2024-04-16T21:18:52.089Z,96496.03
2024-04-16T21:21:18.587Z,96488.72
2024-04-16T21:23:45.051Z,96492.47
2024-04-16T21:26:11.529Z,96493.66
2024-04-16T21:28:38.005Z,96495.03
2024-04-16T21:31:04.710Z,96496.63
2024-04-16T21:33:31.224Z,96501.97
2024-04-16T21:35:57.794Z,96500.00
2024-04-16T21:38:24.274Z,96502.78
2024-04-16T21:40:50.802Z,96504.34
2024-04-16T21:43:17.419Z,96514.66
2024-04-16T21:45:45.226Z,96505.91
2024-04-16T21:48:11.753Z,96505.13
2024-04-16T21:50:38.243Z,96510.25
2024-04-16T21:53:04.907Z,96518.00
2024-04-16T21:55:31.427Z,96507.50
2024-04-16T21:57:59.613Z,96518.22
2024-04-16T22:00:26.145Z,96519.38
2024-04-16T22:02:52.714Z,96515.81
2024-04-16T22:05:19.183Z,96513.84
2024-04-16T22:07:45.689Z,96517.78
2024-04-16T22:10:12.127Z,96525.13
2024-04-16T22:12:38.616Z,96529.69
2024-04-16T22:15:05.577Z,96531.66
2024-04-16T22:17:32.109Z,96528.69
2024-04-16T22:19:58.642Z,96530.28
2024-04-16T22:22:25.167Z,96534.63
2024-04-16T22:24:51.644Z,96536.03
2024-04-16T22:27:18.117Z,96541.16
2024-04-16T22:29:44.585Z,96535.41
2024-04-16T22:32:11.073Z,96537.81
2024-04-16T22:34:37.579Z,96539.78
2024-04-16T22:37:04.319Z,96548.88
2024-04-16T22:39:30.818Z,96552.06
2024-04-16T22:41:57.284Z,96547.69
2024-04-16T22:44:23.778Z,96550.88
2024-04-16T22:46:50.363Z,96564.13
2024-04-16T22:49:16.932Z,96550.25
2024-04-16T22:51:43.408Z,96558.59
2024-04-16T22:54:09.885Z,96568.09
2024-04-16T22:56:36.352Z,96572.84
2024-04-16T22:59:02.897Z,96568.47
2024-04-16T23:01:29.430Z,96570.66
2024-04-16T23:03:55.967Z,96577.81
2024-04-16T23:06:22.472Z,96577.78
2024-04-16T23:08:48.919Z,96575.59
2024-04-16T23:11:15.569Z,96583.72
2024-04-16T23:13:42.223Z,96579.94
2024-04-16T23:16:08.739Z,96581.91
2024-04-16T23:18:35.353Z,96582.09
2024-04-16T23:21:01.885Z,96586.09
2024-04-16T23:23:28.328Z,96581.72
2024-04-16T23:25:54.827Z,96585.09
2024-04-16T23:28:21.387Z,96579.56
2024-04-16T23:30:47.883Z,96584.50
2024-04-16T23:33:14.446Z,96581.31
2024-04-16T23:35:40.932Z,96578.56
2024-04-16T23:38:07.406Z,96581.75
2024-04-16T23:40:33.911Z,96582.31
2024-04-16T23:43:00.440Z,96577.97
2024-04-16T23:45:26.949Z,96570.06
2024-04-16T23:47:53.499Z,96569.09
2024-04-16T23:50:20.007Z,96574.00
2024-04-16T23:52:46.479Z,96562.72
2024-04-16T23:55:12.985Z,96566.50
2024-04-16T23:57:39.450Z,96558.56
